Map

Track Data

SID SEASON NUMBER BASIN SUBBASIN NAME ISO_TIME NATURE LAT LON WMO_WIND WMO_PRES WMO_AGENCY TRACK_TYPE DIST2LAND LANDFALL IFLAG USA_AGENCY USA_ATCF_ID USA_LAT USA_LON USA_RECORD USA_STATUS USA_WIND USA_PRES USA_SSHS USA_R34_NE USA_R34_SE USA_R34_SW USA_R34_NW USA_R50_NE USA_R50_SE USA_R50_SW USA_R50_NW USA_R64_NE USA_R64_SE USA_R64_SW USA_R64_NW USA_POCI USA_ROCI USA_RMW USA_EYE TOKYO_LAT TOKYO_LON TOKYO_GRADE TOKYO_WIND TOKYO_PRES TOKYO_R50_DIR TOKYO_R50_LONG TOKYO_R50_SHORT TOKYO_R30_DIR TOKYO_R30_LONG TOKYO_R30_SHORT TOKYO_LAND CMA_LAT CMA_LON CMA_CAT CMA_WIND CMA_PRES HKO_LAT HKO_LON HKO_CAT HKO_WIND HKO_PRES NEWDELHI_LAT NEWDELHI_LON NEWDELHI_GRADE NEWDELHI_WIND NEWDELHI_PRES NEWDELHI_CI NEWDELHI_DP NEWDELHI_POCI REUNION_LAT REUNION_LON REUNION_TYPE REUNION_WIND REUNION_PRES REUNION_TNUM REUNION_CI REUNION_RMW REUNION_R34_NE REUNION_R34_SE REUNION_R34_SW REUNION_R34_NW REUNION_R50_NE REUNION_R50_SE REUNION_R50_SW REUNION_R50_NW REUNION_R64_NE REUNION_R64_SE REUNION_R64_SW REUNION_R64_NW BOM_LAT BOM_LON BOM_TYPE BOM_WIND BOM_PRES BOM_TNUM BOM_CI BOM_RMW BOM_R34_NE BOM_R34_SE BOM_R34_SW BOM_R34_NW BOM_R50_NE BOM_R50_SE BOM_R50_SW BOM_R50_NW BOM_R64_NE BOM_R64_SE BOM_R64_SW BOM_R64_NW BOM_ROCI BOM_POCI BOM_EYE BOM_POS_METHOD BOM_PRES_METHOD NADI_LAT NADI_LON NADI_CAT NADI_WIND NADI_PRES WELLINGTON_LAT WELLINGTON_LON WELLINGTON_WIND WELLINGTON_PRES DS824_LAT DS824_LON DS824_STAGE DS824_WIND DS824_PRES TD9636_LAT TD9636_LON TD9636_STAGE TD9636_WIND TD9636_PRES TD9635_LAT TD9635_LON TD9635_WIND TD9635_PRES TD9635_ROCI NEUMANN_LAT NEUMANN_LON NEUMANN_CLASS NEUMANN_WIND NEUMANN_PRES MLC_LAT MLC_LON MLC_CLASS MLC_WIND MLC_PRES USA_GUST BOM_GUST BOM_GUST_PER REUNION_GUST REUNION_GUST_PER USA_SEAHGT USA_SEARAD_NE USA_SEARAD_SE USA_SEARAD_SW USA_SEARAD_NW STORM_SPEED STORM_DIR
1977249N33280 1977 80 NA NA CLARA 1977-09-05 12:00:00 TS 32.8000 -80.0000 20 1015 hurdat_atl main 0 0 O_____________ hurdat_atl AL071977 32.8000 -80.0000 TD 20 1015 -1 9 66
1977249N33280 1977 80 NA NA CLARA 1977-09-05 15:00:00 TS 32.9955 -79.4854 main 0 0 P_____________ AL071977 32.9955 -79.4854 TD 20 1014 -1 9 64
1977249N33280 1977 80 NA NA CLARA 1977-09-05 18:00:00 TS 33.2000 -79.0000 20 1014 hurdat_atl main 18 18 O_____________ hurdat_atl AL071977 33.2000 -79.0000 TD 20 1014 -1 9 61
1977249N33280 1977 80 NA NA CLARA 1977-09-05 21:00:00 TS 33.4148 -78.5700 main 43 33 P_____________ AL071977 33.4148 -78.5700 TD 20 1013 -1 8 59
1977249N33280 1977 80 NA NA CLARA 1977-09-06 00:00:00 TS 33.6000 -78.2000 20 1013 hurdat_atl main 33 22 O_____________ hurdat_atl AL071977 33.6000 -78.2000 TD 20 1013 -1 6 62
1977249N33280 1977 80 NA NA CLARA 1977-09-06 03:00:00 TS 33.7148 -77.8847 main 24 21 P_____________ AL071977 33.7148 -77.8847 TD 22 1012 -1 5 68
1977249N33280 1977 80 NA NA CLARA 1977-09-06 06:00:00 TS 33.8000 -77.6000 25 1012 hurdat_atl main 38 38 O_____________ hurdat_atl AL071977 33.8000 -77.6000 TD 25 1012 -1 5 69
1977249N33280 1977 80 NA NA CLARA 1977-09-06 09:00:00 TS 33.8999 -77.2999 main 56 56 P_____________ AL071977 33.8999 -77.2999 TD 25 1011 -1 5 68
1977249N33280 1977 80 NA NA CLARA 1977-09-06 12:00:00 TS 34.0000 -77.0000 25 1011 hurdat_atl main 66 66 O_____________ hurdat_atl AL071977 34.0000 -77.0000 TD 25 1011 -1 5 68
1977249N33280 1977 80 NA NA CLARA 1977-09-06 15:00:00 TS 34.0999 -76.6999 main 66 55 P_____________ AL071977 34.0999 -76.6999 TD 25 1010 -1 5 68
1977249N33280 1977 80 NA NA CLARA 1977-09-06 18:00:00 TS 34.2000 -76.4000 25 1010 hurdat_atl main 56 52 O_____________ hurdat_atl AL071977 34.2000 -76.4000 TD 25 1010 -1 5 68
1977249N33280 1977 80 NA NA CLARA 1977-09-06 21:00:00 TS 34.2998 -76.1149 main 57 57 P_____________ AL071977 34.2998 -76.1149 TD 27 1010 -1 5 68
1977249N33280 1977 80 NA NA CLARA 1977-09-07 00:00:00 TS 34.4000 -75.8000 30 1010 hurdat_atl main 72 72 O_____________ hurdat_atl AL071977 34.4000 -75.8000 TD 30 1010 -1 6 70
1977249N33280 1977 80 NA NA CLARA 1977-09-07 03:00:00 TS 34.5076 -75.4076 main 93 93 P_____________ AL071977 34.5076 -75.4076 TD 30 1010 -1 7 73
1977249N33280 1977 80 NA NA CLARA 1977-09-07 06:00:00 TS 34.6000 -75.0000 30 1010 hurdat_atl main 123 123 O_____________ hurdat_atl AL071977 34.6000 -75.0000 TD 30 1010 -1 6 77
1977249N33280 1977 80 NA NA CLARA 1977-09-07 09:00:00 TS 34.6493 -74.6871 main 143 135 P_____________ AL071977 34.6493 -74.6871 TD 30 1010 -1 6 80
1977249N33280 1977 80 NA NA CLARA 1977-09-07 12:00:00 TS 34.7000 -74.3000 30 1010 hurdat_atl main 161 161 O_____________ hurdat_atl AL071977 34.7000 -74.3000 TD 30 1010 -1 8 80
1977249N33280 1977 80 NA NA CLARA 1977-09-07 15:00:00 TS 34.7928 -73.6951 main 197 197 P_____________ AL071977 34.7928 -73.6951 TD 30 1010 -1 11 79
1977249N33280 1977 80 NA NA CLARA 1977-09-07 18:00:00 TS 34.9000 -73.0000 30 1010 hurdat_atl main 247 247 O_____________ hurdat_atl AL071977 34.9000 -73.0000 TD 30 1010 -1 11 79
1977249N33280 1977 80 NA NA CLARA 1977-09-07 21:00:00 TS 34.9987 -72.4021 main 294 294 P_____________ AL071977 34.9987 -72.4021 TD 32 1008 -1 11 79
1977249N33280 1977 80 NA NA CLARA 1977-09-08 00:00:00 TS 35.1000 -71.7000 35 1006 hurdat_atl main 352 352 O_____________ hurdat_atl AL071977 35.1000 -71.7000 TS 35 1006 0 14 82
1977249N33280 1977 80 NA NA CLARA 1977-09-08 03:00:00 TS 35.2003 -70.7524 main 429 429 P_____________ AL071977 35.2003 -70.7524 TS 40 1003 0 16 83
1977249N33280 1977 80 NA NA CLARA 1977-09-08 06:00:00 TS 35.3000 -69.7000 45 1001 hurdat_atl main 526 526 O_____________ hurdat_atl AL071977 35.3000 -69.7000 TS 45 1001 0 17 83
1977249N33280 1977 80 NA NA CLARA 1977-09-08 09:00:00 TS 35.4075 -68.6627 main 614 614 P_____________ AL071977 35.4075 -68.6627 TS 55 997 0 16 83
1977249N33280 1977 80 NA NA CLARA 1977-09-08 12:00:00 TS 35.5000 -67.7000 65 993 hurdat_atl main 703 703 O_____________ hurdat_atl AL071977 35.5000 -67.7000 HU 65 993 1 14 83
1977249N33280 1977 80 NA NA CLARA 1977-09-08 15:00:00 TS 35.5711 -66.9200 main 730 730 P_____________ AL071977 35.5711 -66.9200 HU 65 993 1 12 85
1977249N33280 1977 80 NA NA CLARA 1977-09-08 18:00:00 TS 35.6000 -66.2000 65 994 hurdat_atl main 754 754 O_____________ hurdat_atl AL071977 35.6000 -66.2000 HU 65 994 1 13 88
1977249N33280 1977 80 NA NA CLARA 1977-09-08 21:00:00 TS 35.6103 -65.3706 main 787 787 P_____________ AL071977 35.6103 -65.3706 HU 65 996 1 13 94
1977249N33280 1977 80 NA NA CLARA 1977-09-09 00:00:00 TS 35.5000 -64.6000 65 998 hurdat_atl main 833 833 O_____________ hurdat_atl AL071977 35.5000 -64.6000 HU 65 998 1 12 110
1977249N33280 1977 80 NA NA CLARA 1977-09-09 03:00:00 TS 35.2020 -63.9820 main 891 891 P_____________ AL071977 35.2020 -63.9820 HU 62 999 0 11 128
1977249N33280 1977 80 NA NA CLARA 1977-09-09 06:00:00 TS 34.8000 -63.5000 60 1000 hurdat_atl main 953 953 O_____________ hurdat_atl AL071977 34.8000 -63.5000 TS 60 1000 0 11 137
1977249N33280 1977 80 NA NA CLARA 1977-09-09 09:00:00 TS 34.3924 -63.0674 main 1011 1011 P_____________ AL071977 34.3924 -63.0674 TS 57 999 0 10 144
1977249N33280 1977 80 NA NA CLARA 1977-09-09 12:00:00 TS 34.0000 -62.8000 55 999 hurdat_atl main 1063 1063 O_____________ hurdat_atl AL071977 34.0000 -62.8000 TS 55 999 0 8 158
1977249N33280 1977 80 NA NA CLARA 1977-09-09 15:00:00 TS 33.6848 -62.7179 main 1096 1096 P_____________ AL071977 33.6848 -62.7179 TS 52 1000 0 6 180
1977249N33280 1977 80 NA NA CLARA 1977-09-09 18:00:00 TS 33.4000 -62.8000 50 1001 hurdat_atl main 1119 1119 O_____________ hurdat_atl AL071977 33.4000 -62.8000 TS 50 1001 0 7 198
1977249N33280 1977 80 NA NA CLARA 1977-09-09 21:00:00 TS 33.0551 -62.9705 main 1138 1138 P_____________ AL071977 33.0551 -62.9705 TS 47 1000 0 7 209
1977249N33280 1977 80 NA NA CLARA 1977-09-10 00:00:00 TS 32.8000 -63.2000 45 1000 hurdat_atl main 1157 1153 O_____________ hurdat_atl AL071977 32.8000 -63.2000 TS 45 1000 0 5 230
1977249N33280 1977 80 NA NA CLARA 1977-09-10 03:00:00 TS 32.7400 -63.4148 main 1158 1140 P_____________ AL071977 32.7400 -63.4148 TS 42 1000 0 3 270
1977249N33280 1977 80 NA NA CLARA 1977-09-10 06:00:00 TS 32.8000 -63.6000 40 1000 hurdat_atl main 1140 1125 O_____________ hurdat_atl AL071977 32.8000 -63.6000 TS 40 1000 0 3 294
1977249N33280 1977 80 NA NA CLARA 1977-09-10 09:00:00 TS 32.8625 -63.7374 main 1125 1111 P_____________ AL071977 32.8625 -63.7374 TS 42 1000 0 3 320
1977249N33280 1977 80 NA NA CLARA 1977-09-10 12:00:00 TS 33.0000 -63.8000 45 1001 hurdat_atl main 1111 1092 O_____________ hurdat_atl AL071977 33.0000 -63.8000 TS 45 1001 0 4 351
1977249N33280 1977 80 NA NA CLARA 1977-09-10 15:00:00 TS 33.2124 -63.8022 main 1092 1067 P_____________ AL071977 33.2124 -63.8022 TS 45 1001 0 5 9
1977249N33280 1977 80 NA NA CLARA 1977-09-10 18:00:00 TS 33.5000 -63.7000 45 1001 hurdat_atl main 1067 1042 O_____________ hurdat_atl AL071977 33.5000 -63.7000 TS 45 1001 0 7 22
1977249N33280 1977 80 NA NA CLARA 1977-09-10 21:00:00 TS 33.8425 -63.4951 main 1047 1024 P_____________ AL071977 33.8425 -63.4951 TS 45 1001 0 8 31
1977249N33280 1977 80 NA NA CLARA 1977-09-11 00:00:00 TS 34.2000 -63.2000 45 1002 hurdat_atl main 1024 1016 O_____________ hurdat_atl AL071977 34.2000 -63.2000 TS 45 1002 0 8 39
1977249N33280 1977 80 NA NA CLARA 1977-09-11 03:00:00 TS 34.4623 -62.8863 main 1012 997 P_____________ AL071977 34.4623 -62.8863 TS 45 1002 0 8 44
1977249N33280 1977 80 NA NA CLARA 1977-09-11 06:00:00 TS 34.8000 -62.5000 45 1002 hurdat_atl main 997 952 O_____________ hurdat_atl AL071977 34.8000 -62.5000 TS 45 1002 0 11 39
1977249N33280 1977 80 NA NA CLARA 1977-09-11 09:00:00 TS 35.2943 -62.0723 main 952 895 P_____________ AL071977 35.2943 -62.0723 TS 45 1001 0 15 34
1977249N33280 1977 80 NA NA CLARA 1977-09-11 12:00:00 ET 36.0000 -61.5000 45 1001 hurdat_atl main 895 837 O_____________ hurdat_atl AL071977 36.0000 -61.5000 EX 45 1001 -4 19 34
1977249N33280 1977 80 NA NA CLARA 1977-09-11 15:00:00 ET 36.9020 -60.7449 main 831 770 P_____________ AL071977 36.9020 -60.7449 EX 45 1001 -4 24 34
1977249N33280 1977 80 NA NA CLARA 1977-09-11 18:00:00 ET 38.0000 -59.8000 45 1001 hurdat_atl main 766 693 O_____________ hurdat_atl AL071977 38.0000 -59.8000 EX 45 1001 -4 28 35
1977249N33280 1977 80 NA NA CLARA 1977-09-11 21:00:00 ET 39.2225 -58.7022 main 695 604 P_____________ AL071977 39.2225 -58.7022 EX 45 1001 -4 31 35
1977249N33280 1977 80 NA NA CLARA 1977-09-12 00:00:00 ET 40.5000 -57.5000 45 1001 hurdat_atl main 598 O_____________ hurdat_atl AL071977 40.5000 -57.5000 EX 45 1001 -4 31 36

About IBTrACS Database

This database is a web-friendly format of International Best Track Archive for Climate Stewardship (IBTrACS), a global best track data archive curated by NOAA dating back to 1842.

Updated: 2021-12-03